South Houston, TX

10:18 AM CDT on September 30, 2014 (GMT -0500)
South Houston | Change Station
CLOSE
Current Station
Personal Weather Station
Location: South Houston, TX
Elevation: 52 ft
Nearby Weather Stations

Elev 52 ft 29.67 °N, 95.22 °W | Updated 9 seconds ago

Clear
Clear
85.5 °F
Feels Like 90 °F
N
0.0
Wind Variable Wind from SE
Gusts 1.6 mph

Today
High -- | Low -- °F
--% Chance of Precip.
Yesterday
High -- | Low -- °F
Precip. -- in
7:13 AM 7:07 PM
Waxing Crescent, 37% visible
Pressure 29.89 in
Visibility 10.0 miles
Clouds Few 1500 ft
Scattered Clouds 15000 ft
Heat Index 90 °F
Dew Point 70 °F
Humidity 60%
Rainfall 0.00 in
Snow Depth Not available.
UV 3 out of 12
Pollen 7.80 out of 12
Ozone Good
PM2.5 Moderate
Flu Activity Not available.
METAR KHOU 301453Z 00000KT 10SM FEW015 SCT150 27/23 A2988 RMK AO2 SLP122 8/130 T02720233 51004

More Conditions Fewer Conditions

Pressure 29.89 in
Visibility 10.0 miles
Clouds Few 1500 ft
Scattered Clouds 15000 ft
Heat Index 90 °F
Dew Point 70 °F
Humidity 60%
Rainfall 0.00 in
Snow Depth Not available.
UV 3 out of 12
Pollen 7.80 out of 12
Ozone Good
PM2.5 Moderate
Flu Activity Not available.
METAR KHOU 301453Z 00000KT 10SM FEW015 SCT150 27/23 A2988 RMK AO2 SLP122 8/130 T02720233 51004

More Conditions Fewer Conditions

10-Day Weather Forecast

Almanac

Astronomy

Sep. 30, 2014 Rise Set
Actual Time 7:13 AM CDT 7:07 PM CDT
Civil Twilight 6:49 AM CDT 7:31 PM CDT
Nautical Twilight 6:22 AM CDT 7:59 PM CDT
Astronomical Twilight 5:54 AM CDT 8:26 PM CDT
Moon 1:02 PM CDT 11:58 PM CDT
Length of Visible Light 12h 41m
Length of Day
11h 53m
Tomorrow will be 1m 46s shorter.
Waxing Crescent, 37% of the Moon is Illuminated
Today
Waxing Crescent
Oct 1
First Quarter
Oct 8
Full
Oct 15
Last Quarter
Oct 23
New

Today's Extremes

State Highs State Lows

Community

WunderPhotos

Upload Photos

1,757,657 photos uploaded!

WunderBlogs® & News

Nearby

Air Quality

  Air Quality AQ Index Pollutant
Yesterday Good
PM2.5
Yesterday Good
OZONE
Current Moderate
PM2.5
Current Good
OZONE
Tuesday Moderate
OZONE
Tuesday Good
PM10
Wednesday Good
OZONE
Wednesday Good
PM10
Thursday Good
OZONE
Thursday Good
PM10
Friday Good
OZONE
Friday Good
PM10

Snow Depth

Station Depth Elevation
No new snow has been reported.

Earthquake Activity

City Distance Mag. Time & Date
No recent earthquake activity has been reported nearby.
Minimum magnitude displayed is 2.5.

Coastal Water Temperatures

Place Temperature
Eagle Point, TX 80.1 °F
USCG Freeport, TX 80.1 °F
Galveston Pier TX 80.1 °F
Galveston Bay (North Jetty), TX 80.1 °F
Rollover Pass, TX 78.1 °F

Nearby Weather Stations